Rochester Mills, Pennsylvania
Current Conditions -  °F | °C
As of 8:55 PM on Sunday 21 Dec 2014 (Local Time) from KIDI Reporting Station
Clear Clear  
Wind Chill: 19°   Ceiling: Unl
Heat Index: 27°   Visibility: 10mi
Dew Point: 21°   Wind: 7mph
Humidity: 80%   Direction: 100°E
Pressure: 30.26"   Gusts: NA
Location:  40.82°N, 78.99°W
Report Text: KIDI 220155Z AUTO 10006KT 10SM CLR M03/M06 A3026 RMK A01
Loading
Personal Weather Stations






























Interactive Weather Map New forecast layout! Learn more

10-Day Weather Forecast

Advertisements
Track Severe Weather on mobile